createdAt,value
2017-05-05T00:00:13.210Z,0
2017-05-05T00:01:23.469Z,0
2017-05-05T00:02:33.413Z,0
2017-05-05T00:03:43.669Z,0
2017-05-05T00:04:53.930Z,0
2017-05-05T00:06:04.190Z,0
2017-05-05T00:07:14.138Z,0
2017-05-05T00:08:24.402Z,0
2017-05-05T00:09:34.658Z,0
2017-05-05T00:10:44.923Z,0
2017-05-05T00:11:54.881Z,0
2017-05-05T00:13:05.139Z,0
2017-05-05T00:14:14.772Z,0
2017-05-05T00:15:25.028Z,0
2017-05-05T00:16:35.292Z,0
2017-05-05T00:17:45.545Z,0
2017-05-05T00:18:55.821Z,0
2017-05-05T00:20:05.765Z,0
2017-05-05T00:21:16.025Z,0
2017-05-05T00:22:25.975Z,0
2017-05-05T00:23:35.920Z,0
2017-05-05T00:24:46.193Z,0
2017-05-05T00:25:56.452Z,0
2017-05-05T00:27:06.398Z,0
2017-05-05T00:28:16.657Z,0
2017-05-05T00:29:26.916Z,0
2017-05-05T00:30:37.181Z,0
2017-05-05T00:31:47.443Z,0
2017-05-05T00:32:57.706Z,0
2017-05-05T00:34:07.663Z,0
2017-05-05T00:35:17.932Z,0
2017-05-05T00:36:28.193Z,0
2017-05-05T00:37:38.462Z,0
2017-05-05T00:38:48.730Z,0
2017-05-05T00:39:58.993Z,0
2017-05-05T00:41:09.252Z,0
2017-05-05T00:42:19.516Z,0
2017-05-05T00:43:29.796Z,0
2017-05-05T00:44:39.437Z,0
2017-05-05T00:45:49.698Z,0
2017-05-05T00:46:59.962Z,0
2017-05-05T00:48:09.916Z,0
2017-05-05T00:49:19.860Z,0
2017-05-05T00:50:30.119Z,0
2017-05-05T00:51:40.379Z,0
2017-05-05T00:52:50.642Z,0
2017-05-05T00:54:00.904Z,0
2017-05-05T00:55:10.849Z,0
2017-05-05T00:56:21.117Z,0
2017-05-05T00:57:31.065Z,0
2017-05-05T00:58:41.328Z,0
2017-05-05T00:59:51.587Z,0
2017-05-05T01:01:01.843Z,0
2017-05-05T01:02:11.795Z,0
2017-05-05T01:03:22.054Z,0
2017-05-05T01:04:31.993Z,0
2017-05-05T01:05:42.256Z,0
2017-05-05T01:06:52.517Z,0
2017-05-05T01:08:02.498Z,0
2017-05-05T01:09:12.759Z,0
2017-05-05T01:10:23.018Z,0
2017-05-05T01:11:33.280Z,0
2017-05-05T01:12:43.220Z,0
2017-05-05T01:13:53.481Z,0
2017-05-05T01:15:03.744Z,0
2017-05-05T01:16:14.002Z,0
2017-05-05T01:17:23.959Z,0
2017-05-05T01:18:34.228Z,0
2017-05-05T01:19:44.492Z,0
2017-05-05T01:20:54.749Z,0
2017-05-05T01:22:05.007Z,0
2017-05-05T01:23:15.265Z,0
2017-05-05T01:24:25.526Z,0
2017-05-05T01:25:35.789Z,0
2017-05-05T01:26:46.046Z,0
2017-05-05T01:27:55.998Z,0
2017-05-05T01:29:06.267Z,0
2017-05-05T01:30:15.588Z,0
2017-05-05T01:31:25.541Z,0
2017-05-05T01:32:35.804Z,0
2017-05-05T01:33:46.069Z,0
2017-05-05T01:34:56.017Z,0
2017-05-05T01:36:06.283Z,0
2017-05-05T01:37:16.544Z,0
2017-05-05T01:38:26.180Z,0
2017-05-05T01:39:36.442Z,0
2017-05-05T01:40:46.698Z,0
2017-05-05T01:41:56.957Z,0
2017-05-05T01:43:07.222Z,0
2017-05-05T01:44:17.485Z,0
2017-05-05T01:45:27.743Z,0
2017-05-05T01:46:37.998Z,0
2017-05-05T01:47:48.262Z,0
2017-05-05T01:48:58.534Z,0
2017-05-05T01:50:08.791Z,0
2017-05-05T01:51:18.742Z,0
2017-05-05T01:52:28.685Z,0
2017-05-05T01:53:38.635Z,0
2017-05-05T01:54:48.901Z,0
2017-05-05T01:55:59.163Z,0
2017-05-05T01:57:09.110Z,0
2017-05-05T01:58:19.381Z,0
2017-05-05T01:59:29.333Z,0
2017-05-05T02:00:39.604Z,0
2017-05-05T02:01:49.869Z,0
2017-05-05T02:02:59.817Z,0
2017-05-05T02:04:10.071Z,0
2017-05-05T02:05:20.335Z,0
2017-05-05T02:06:30.597Z,0
2017-05-05T02:07:40.864Z,0
2017-05-05T02:08:51.126Z,0
2017-05-05T02:10:01.397Z,0
2017-05-05T02:11:11.658Z,0
2017-05-05T02:12:21.608Z,0
2017-05-05T02:13:31.560Z,0
2017-05-05T02:14:41.878Z,0
2017-05-05T02:15:52.139Z,0
2017-05-05T02:17:02.400Z,0
2017-05-05T02:18:12.662Z,0
2017-05-05T02:19:22.975Z,0
2017-05-05T02:20:33.234Z,0
2017-05-05T02:21:43.492Z,0
2017-05-05T02:22:53.751Z,0
2017-05-05T02:24:04.015Z,0
2017-05-05T02:25:13.972Z,0
2017-05-05T02:26:23.917Z,0
2017-05-05T02:27:33.552Z,0
2017-05-05T02:28:43.823Z,0
2017-05-05T02:29:54.083Z,0
2017-05-05T02:31:04.344Z,0
2017-05-05T02:32:14.291Z,0
2017-05-05T02:33:24.563Z,0
2017-05-05T02:34:34.827Z,0
2017-05-05T02:35:45.088Z,0
2017-05-05T02:36:55.350Z,0
2017-05-05T02:38:05.613Z,0
2017-05-05T02:39:15.883Z,0
2017-05-05T02:40:26.143Z,0
2017-05-05T02:41:36.096Z,0
2017-05-05T02:42:46.362Z,0
2017-05-05T02:43:56.624Z,0
2017-05-05T02:45:05.945Z,0
2017-05-05T02:46:16.206Z,0
2017-05-05T02:47:26.479Z,0
2017-05-05T02:48:36.738Z,0
2017-05-05T02:49:47.003Z,0
2017-05-05T02:50:57.259Z,0
2017-05-05T02:52:07.207Z,0
2017-05-05T02:53:17.469Z,0
2017-05-05T02:54:27.725Z,0
2017-05-05T02:55:37.983Z,0
2017-05-05T02:56:47.939Z,5
2017-05-05T02:57:58.213Z,5
2017-05-05T02:59:08.163Z,5
2017-05-05T03:00:18.116Z,5
2017-05-05T03:01:27.753Z,5
2017-05-05T03:02:38.021Z,5
2017-05-05T03:03:48.282Z,5
2017-05-05T03:04:58.543Z,5
2017-05-05T03:06:08.807Z,5
2017-05-05T03:07:19.071Z,5
2017-05-05T03:08:28.714Z,5
2017-05-05T03:09:38.974Z,10
2017-05-05T03:10:49.240Z,10
2017-05-05T03:11:59.502Z,10
2017-05-05T03:13:09.761Z,10
2017-05-05T03:14:20.025Z,10
2017-05-05T03:15:29.972Z,15
2017-05-05T03:16:40.233Z,15
2017-05-05T03:17:50.503Z,15
2017-05-05T03:19:00.764Z,15
2017-05-05T03:20:10.401Z,15
2017-05-05T03:21:20.662Z,15
2017-05-05T03:22:30.931Z,15
2017-05-05T03:23:40.882Z,15
2017-05-05T03:24:51.146Z,15
2017-05-05T03:26:01.408Z,15
2017-05-05T03:27:11.673Z,15
2017-05-05T03:28:21.624Z,15
2017-05-05T03:29:31.571Z,15
2017-05-05T03:30:41.840Z,15
2017-05-05T03:31:52.110Z,15
2017-05-05T03:33:02.377Z,20
2017-05-05T03:34:12.010Z,20
2017-05-05T03:35:21.961Z,20
2017-05-05T03:36:32.226Z,20
2017-05-05T03:37:42.493Z,20
2017-05-05T03:38:52.762Z,20
2017-05-05T03:40:02.710Z,20
2017-05-05T03:41:12.665Z,20
2017-05-05T03:42:22.607Z,25
2017-05-05T03:43:32.555Z,25
2017-05-05T03:44:42.508Z,25
2017-05-05T03:45:52.773Z,25
2017-05-05T03:47:02.722Z,25
2017-05-05T03:48:12.351Z,30
2017-05-05T03:49:22.306Z,30
2017-05-05T03:50:32.570Z,30
2017-05-05T03:51:42.831Z,35
2017-05-05T03:52:53.102Z,35
2017-05-05T03:54:03.060Z,35
2017-05-05T03:55:13.018Z,40
2017-05-05T03:56:23.286Z,40
2017-05-05T03:57:33.547Z,40
2017-05-05T03:58:43.810Z,45
2017-05-05T03:59:54.070Z,45
2017-05-05T04:01:04.331Z,50
2017-05-05T04:02:14.618Z,50
2017-05-05T04:03:24.563Z,50
2017-05-05T04:04:34.826Z,55
2017-05-05T04:05:44.461Z,55
2017-05-05T04:06:54.719Z,60
2017-05-05T04:08:04.976Z,60
2017-05-05T04:09:14.608Z,60
2017-05-05T04:10:24.871Z,65
2017-05-05T04:11:35.131Z,65
2017-05-05T04:12:45.390Z,70
2017-05-05T04:13:55.651Z,75
2017-05-05T04:15:05.600Z,80
2017-05-05T04:16:15.555Z,80
2017-05-05T04:17:25.826Z,85
2017-05-05T04:18:36.088Z,95
2017-05-05T04:19:46.353Z,100
2017-05-05T04:20:56.617Z,105
2017-05-05T04:22:06.880Z,110
2017-05-05T04:23:17.168Z,110
2017-05-05T04:24:27.431Z,115
2017-05-05T04:25:37.700Z,115
2017-05-05T04:26:47.991Z,115
2017-05-05T04:27:57.935Z,120
2017-05-05T04:29:08.197Z,120
2017-05-05T04:30:18.146Z,125
2017-05-05T04:31:28.404Z,125
2017-05-05T04:32:38.345Z,125
2017-05-05T04:33:48.608Z,130
2017-05-05T04:34:58.872Z,135
2017-05-05T04:36:09.130Z,140
2017-05-05T04:37:19.085Z,140
2017-05-05T04:38:29.346Z,145
2017-05-05T04:39:39.606Z,145
2017-05-05T04:40:49.865Z,145
2017-05-05T04:41:59.813Z,145
2017-05-05T04:43:09.763Z,145
2017-05-05T04:44:19.712Z,145
2017-05-05T04:45:29.978Z,145
2017-05-05T04:46:40.233Z,145
2017-05-05T04:47:50.508Z,140
2017-05-05T04:49:00.775Z,145
2017-05-05T04:50:11.038Z,150
2017-05-05T04:51:21.297Z,150
2017-05-05T04:52:31.564Z,150
2017-05-05T04:53:41.831Z,150
2017-05-05T04:54:52.115Z,145
2017-05-05T04:56:02.372Z,140
2017-05-05T04:57:12.325Z,145
2017-05-05T04:58:22.274Z,145
2017-05-05T04:59:32.228Z,150
2017-05-05T05:00:42.181Z,145
2017-05-05T05:01:52.479Z,145
2017-05-05T05:03:02.743Z,145
2017-05-05T05:04:12.702Z,145
2017-05-05T05:05:22.960Z,140
2017-05-05T05:06:32.911Z,140
2017-05-05T05:07:43.178Z,140
2017-05-05T05:08:53.442Z,140
2017-05-05T05:10:03.703Z,145
2017-05-05T05:11:13.963Z,145
2017-05-05T05:12:23.910Z,145
2017-05-05T05:13:34.169Z,150
2017-05-05T05:14:44.731Z,155
2017-05-05T05:15:54.993Z,155
2017-05-05T05:17:05.255Z,155
2017-05-05T05:18:15.522Z,160
2017-05-05T05:19:25.793Z,160
2017-05-05T05:20:36.059Z,160
2017-05-05T05:21:46.321Z,165
2017-05-05T05:22:56.609Z,165
2017-05-05T05:24:06.905Z,170
2017-05-05T05:25:17.164Z,170
2017-05-05T05:26:27.679Z,170
2017-05-05T05:27:37.640Z,175
2017-05-05T05:28:47.945Z,180
2017-05-05T05:29:58.208Z,175
2017-05-05T05:31:08.473Z,175
2017-05-05T05:32:20.739Z,175
2017-05-05T05:33:31.007Z,175
2017-05-05T05:34:41.293Z,175
2017-05-05T05:35:51.235Z,170
2017-05-05T05:37:01.175Z,170
2017-05-05T05:38:11.438Z,170
2017-05-05T05:39:21.696Z,170
2017-05-05T05:40:31.337Z,170
2017-05-05T05:41:41.602Z,170
2017-05-05T05:42:51.866Z,170
2017-05-05T05:44:02.127Z,170
2017-05-05T05:45:12.071Z,165
2017-05-05T05:46:22.338Z,170
2017-05-05T05:47:32.603Z,175
2017-05-05T05:48:42.869Z,170
2017-05-05T05:49:53.136Z,170
2017-05-05T05:51:03.398Z,170
2017-05-05T05:52:12.724Z,170
2017-05-05T05:53:22.990Z,175
2017-05-05T05:54:33.258Z,175
2017-05-05T05:55:43.208Z,175
2017-05-05T05:56:53.472Z,175
2017-05-05T05:58:03.768Z,175
2017-05-05T05:59:14.031Z,175
2017-05-05T06:00:24.304Z,175
2017-05-05T06:01:34.567Z,175
2017-05-05T06:02:44.831Z,175
2017-05-05T06:03:55.098Z,175
2017-05-05T06:05:05.044Z,175
2017-05-05T06:06:14.992Z,175
2017-05-05T06:07:25.256Z,175
2017-05-05T06:08:35.525Z,175
2017-05-05T06:09:45.472Z,175
2017-05-05T06:10:55.728Z,175
2017-05-05T06:12:05.687Z,175
2017-05-05T06:13:15.955Z,175
2017-05-05T06:14:26.215Z,175
2017-05-05T06:15:36.485Z,175
2017-05-05T06:16:46.755Z,175
2017-05-05T06:17:57.026Z,175
2017-05-05T06:19:06.981Z,175
2017-05-05T06:20:16.933Z,175
2017-05-05T06:21:26.888Z,175
2017-05-05T06:22:37.155Z,170
2017-05-05T06:23:47.416Z,170
2017-05-05T06:24:57.366Z,175
2017-05-05T06:26:07.634Z,170
2017-05-05T06:27:17.578Z,170
2017-05-05T06:28:27.842Z,170
2017-05-05T06:29:37.786Z,170
2017-05-05T06:30:48.047Z,170
2017-05-05T06:31:58.311Z,175
2017-05-05T06:33:08.574Z,175
2017-05-05T06:34:18.846Z,175
2017-05-05T06:35:29.135Z,175
2017-05-05T06:36:39.391Z,175
2017-05-05T06:37:49.658Z,175
2017-05-05T06:38:59.920Z,175
2017-05-05T06:40:09.872Z,175
2017-05-05T06:41:20.139Z,175
2017-05-05T06:42:30.405Z,175
2017-05-05T06:43:40.354Z,175
2017-05-05T06:44:50.624Z,175
2017-05-05T06:46:00.944Z,175
2017-05-05T06:47:11.228Z,175
2017-05-05T06:48:21.203Z,175
2017-05-05T06:49:31.462Z,180
2017-05-05T06:50:41.410Z,180
2017-05-05T06:51:51.669Z,180
2017-05-05T06:53:01.931Z,180
2017-05-05T06:54:11.889Z,180
2017-05-05T06:55:21.844Z,180
2017-05-05T06:56:32.109Z,180
2017-05-05T06:57:42.374Z,180
2017-05-05T06:58:52.641Z,185
2017-05-05T07:00:02.913Z,180
2017-05-05T07:01:13.181Z,180
2017-05-05T07:02:23.472Z,180
2017-05-05T07:03:33.753Z,180
2017-05-05T07:04:44.022Z,180
2017-05-05T07:05:53.972Z,185
2017-05-05T07:07:04.233Z,185
2017-05-05T07:08:14.184Z,185
2017-05-05T07:09:24.131Z,185
2017-05-05T07:10:34.399Z,185
2017-05-05T07:11:44.661Z,185
2017-05-05T07:12:54.925Z,185
2017-05-05T07:14:05.182Z,185
2017-05-05T07:15:14.843Z,185
2017-05-05T07:16:24.792Z,185
2017-05-05T07:17:35.051Z,185
2017-05-05T07:18:45.001Z,185
2017-05-05T07:19:55.263Z,185
2017-05-05T07:21:05.535Z,185
2017-05-05T07:22:15.799Z,190
2017-05-05T07:23:25.751Z,190
2017-05-05T07:24:36.029Z,185
2017-05-05T07:25:46.299Z,190
2017-05-05T07:26:56.264Z,185
2017-05-05T07:28:06.541Z,185
2017-05-05T07:29:16.510Z,185
2017-05-05T07:30:26.463Z,185
2017-05-05T07:31:36.417Z,185
2017-05-05T07:32:46.686Z,185
2017-05-05T07:33:56.953Z,185
2017-05-05T07:35:07.217Z,180
2017-05-05T07:36:16.548Z,180
2017-05-05T07:37:26.507Z,185
2017-05-05T07:38:36.785Z,190
2017-05-05T07:39:47.053Z,195
2017-05-05T07:40:57.313Z,195
2017-05-05T07:42:07.255Z,195
2017-05-05T07:43:16.901Z,195
2017-05-05T07:44:27.167Z,200
2017-05-05T07:45:37.113Z,200
2017-05-05T07:46:47.374Z,200
2017-05-05T07:47:57.638Z,200
2017-05-05T07:49:07.584Z,200
2017-05-05T07:50:17.221Z,200
2017-05-05T07:51:27.167Z,200
2017-05-05T07:52:37.114Z,205
2017-05-05T07:53:47.383Z,205
2017-05-05T07:54:57.676Z,205
2017-05-05T07:56:07.465Z,205
2017-05-05T07:57:17.101Z,205
2017-05-05T07:58:27.046Z,210
2017-05-05T07:59:37.310Z,210
2017-05-05T08:00:47.573Z,210
2017-05-05T08:01:57.847Z,210
2017-05-05T08:03:08.124Z,210
2017-05-05T08:04:18.392Z,210
2017-05-05T08:05:28.663Z,210
2017-05-05T08:06:38.926Z,210
2017-05-05T08:07:49.205Z,215
2017-05-05T08:08:58.854Z,215
2017-05-05T08:10:08.805Z,215
2017-05-05T08:11:18.752Z,215
2017-05-05T08:12:29.016Z,220
2017-05-05T08:13:39.291Z,220
2017-05-05T08:14:49.559Z,220
2017-05-05T08:15:59.532Z,220
2017-05-05T08:17:09.482Z,220
2017-05-05T08:18:19.744Z,220
2017-05-05T08:19:29.695Z,220
2017-05-05T08:20:39.979Z,225
2017-05-05T08:21:50.246Z,225
2017-05-05T08:23:00.513Z,225
2017-05-05T08:24:10.775Z,225
2017-05-05T08:25:21.040Z,235
2017-05-05T08:26:30.989Z,225
2017-05-05T08:27:41.260Z,230
2017-05-05T08:28:51.532Z,230
2017-05-05T08:30:01.486Z,230
2017-05-05T08:31:11.756Z,235
2017-05-05T08:32:21.706Z,230
2017-05-05T08:33:31.654Z,235
2017-05-05T08:34:41.614Z,235
2017-05-05T08:35:51.879Z,235
2017-05-05T08:37:02.140Z,235
2017-05-05T08:38:12.084Z,235
2017-05-05T08:39:22.044Z,235
2017-05-05T08:40:32.339Z,235
2017-05-05T08:41:42.606Z,235
2017-05-05T08:42:52.556Z,235
2017-05-05T08:44:02.817Z,235
2017-05-05T08:45:12.452Z,240
2017-05-05T08:46:22.397Z,240
2017-05-05T08:47:32.352Z,240
2017-05-05T08:48:42.625Z,240
2017-05-05T08:49:52.578Z,240
2017-05-05T08:51:02.841Z,240
2017-05-05T08:52:12.479Z,240
2017-05-05T08:53:22.434Z,245
2017-05-05T08:54:32.702Z,245
2017-05-05T08:55:42.966Z,250
2017-05-05T08:56:53.245Z,250
2017-05-05T08:58:02.890Z,250
2017-05-05T08:59:12.216Z,250
2017-05-05T09:00:22.485Z,250
2017-05-05T09:01:32.755Z,250
2017-05-05T09:02:43.022Z,250
2017-05-05T09:03:53.289Z,220
2017-05-05T09:05:03.563Z,220
2017-05-05T09:06:13.208Z,220
2017-05-05T09:07:23.471Z,225
2017-05-05T09:08:33.731Z,225
2017-05-05T09:09:43.992Z,225
2017-05-05T09:10:54.261Z,225
2017-05-05T09:12:04.543Z,225
2017-05-05T09:13:14.491Z,230
2017-05-05T09:14:24.451Z,230
2017-05-05T09:15:34.401Z,230
2017-05-05T09:16:44.670Z,225
2017-05-05T09:17:54.939Z,225
2017-05-05T09:19:04.896Z,225
2017-05-05T09:20:15.162Z,225
2017-05-05T09:21:25.112Z,225
2017-05-05T09:22:35.065Z,220
2017-05-05T09:23:45.364Z,225
2017-05-05T09:24:55.634Z,225
2017-05-05T09:26:05.589Z,225
2017-05-05T09:27:15.870Z,225
2017-05-05T09:28:26.144Z,225
2017-05-05T09:29:36.412Z,225
2017-05-05T09:30:46.672Z,225
2017-05-05T09:31:56.937Z,230
2017-05-05T09:33:07.202Z,230
2017-05-05T09:34:17.171Z,230
2017-05-05T09:35:27.458Z,230
2017-05-05T09:36:37.410Z,235
2017-05-05T09:37:47.676Z,235
2017-05-05T09:38:57.941Z,235
2017-05-05T09:40:07.902Z,255
2017-05-05T09:41:17.852Z,255
2017-05-05T09:42:27.812Z,255
2017-05-05T09:43:38.109Z,255
2017-05-05T09:44:48.369Z,260
2017-05-05T09:45:58.635Z,255
2017-05-05T09:47:08.905Z,260
2017-05-05T09:48:19.166Z,260
2017-05-05T09:49:29.437Z,260
2017-05-05T09:50:39.385Z,260
2017-05-05T09:51:49.649Z,265
2017-05-05T09:52:59.287Z,265
2017-05-05T09:54:09.576Z,265
2017-05-05T09:55:19.839Z,265
2017-05-05T09:56:30.105Z,265
2017-05-05T09:57:40.057Z,270
2017-05-05T09:58:50.323Z,270
2017-05-05T10:00:00.593Z,275
2017-05-05T10:01:10.551Z,275
2017-05-05T10:02:20.821Z,275
2017-05-05T10:03:31.092Z,265
2017-05-05T10:04:41.360Z,270
2017-05-05T10:05:51.627Z,270
2017-05-05T10:07:01.573Z,270
2017-05-05T10:08:11.843Z,275
2017-05-05T10:09:22.111Z,280
2017-05-05T10:10:31.758Z,280
2017-05-05T10:11:41.716Z,275
2017-05-05T10:12:51.675Z,275
2017-05-05T10:14:01.938Z,275
2017-05-05T10:15:11.898Z,275
2017-05-05T10:16:22.167Z,275
2017-05-05T10:17:32.134Z,280
2017-05-05T10:18:42.092Z,280
2017-05-05T10:19:52.366Z,285
2017-05-05T10:21:02.393Z,290
2017-05-05T10:22:12.344Z,295
2017-05-05T10:23:21.984Z,295
2017-05-05T10:24:32.255Z,295
2017-05-05T10:25:42.519Z,295
2017-05-05T10:26:52.789Z,295
2017-05-05T10:28:03.063Z,295
2017-05-05T10:29:13.032Z,295
2017-05-05T10:30:23.303Z,295
2017-05-05T10:31:33.286Z,295
2017-05-05T10:32:43.239Z,295
2017-05-05T10:33:53.517Z,295
2017-05-05T10:35:03.477Z,290
2017-05-05T10:36:13.740Z,295
2017-05-05T10:37:24.017Z,300
2017-05-05T10:38:33.972Z,300
2017-05-05T10:39:44.246Z,300
2017-05-05T10:40:54.525Z,300
2017-05-05T10:42:04.477Z,300
2017-05-05T10:43:14.433Z,300
2017-05-05T10:44:24.397Z,310
2017-05-05T10:45:34.665Z,305
2017-05-05T10:46:44.931Z,305
2017-05-05T10:47:55.225Z,315
2017-05-05T10:49:04.868Z,310
2017-05-05T10:50:14.509Z,315
2017-05-05T10:51:24.782Z,315
2017-05-05T10:52:34.742Z,315
2017-05-05T10:53:45.010Z,320
2017-05-05T10:54:55.280Z,325
2017-05-05T10:56:05.548Z,330
2017-05-05T10:57:15.190Z,325
2017-05-05T10:58:25.467Z,330
2017-05-05T10:59:35.734Z,335
2017-05-05T11:00:46.003Z,335
2017-05-05T11:01:55.963Z,335
2017-05-05T11:03:06.240Z,330
2017-05-05T11:04:16.194Z,335
2017-05-05T11:05:26.151Z,330
2017-05-05T11:06:36.424Z,325
2017-05-05T11:07:46.709Z,330
2017-05-05T11:08:56.991Z,330
2017-05-05T11:10:07.265Z,330
2017-05-05T11:11:17.533Z,330
2017-05-05T11:12:27.488Z,325
2017-05-05T11:13:37.769Z,325
2017-05-05T11:14:47.728Z,325
2017-05-05T11:15:58.000Z,325
2017-05-05T11:17:07.956Z,330
2017-05-05T11:18:17.601Z,335
2017-05-05T11:19:27.863Z,335
2017-05-05T11:20:38.135Z,345
2017-05-05T11:21:48.402Z,375
2017-05-05T11:22:58.702Z,855
2017-05-05T11:24:08.652Z,2320
2017-05-05T11:25:18.371Z,2720
2017-05-05T11:26:28.641Z,2605
2017-05-05T11:27:38.912Z,2230
2017-05-05T11:28:49.185Z,2280
2017-05-05T11:29:59.144Z,2620
2017-05-05T11:31:09.105Z,2940
2017-05-05T11:32:19.387Z,2670
2017-05-05T11:33:29.693Z,2930
2017-05-05T11:34:39.653Z,2850
2017-05-05T11:35:49.616Z,2980
2017-05-05T11:36:59.577Z,3125
2017-05-05T11:38:09.873Z,2910
2017-05-05T11:39:20.162Z,2865
2017-05-05T11:40:30.120Z,2885
2017-05-05T11:41:40.391Z,2885
2017-05-05T11:42:50.674Z,2690
2017-05-05T11:44:00.977Z,2710
2017-05-05T11:45:11.279Z,2945
2017-05-05T11:46:21.249Z,2825
2017-05-05T11:47:31.222Z,2625
2017-05-05T11:48:40.877Z,2815
2017-05-05T11:49:50.847Z,2945
2017-05-05T11:51:01.130Z,2965
2017-05-05T11:52:11.410Z,2940
2017-05-05T11:53:21.696Z,3070
2017-05-05T11:54:31.662Z,2520
2017-05-05T11:55:41.630Z,2860
2017-05-05T11:56:51.912Z,3055
2017-05-05T11:58:02.207Z,2900
2017-05-05T11:59:12.497Z,3100
2017-05-05T12:00:22.778Z,3025
2017-05-05T12:01:32.747Z,3040
2017-05-05T12:02:42.721Z,3125
2017-05-05T12:03:53.012Z,3280
2017-05-05T12:05:02.987Z,3165
2017-05-05T12:06:12.637Z,3205
2017-05-05T12:07:21.982Z,3305
2017-05-05T12:08:31.636Z,3140
2017-05-05T12:09:41.608Z,2930
2017-05-05T12:10:51.580Z,3280
2017-05-05T12:12:01.863Z,3155
2017-05-05T12:13:12.150Z,3025
2017-05-05T12:14:21.805Z,3010
2017-05-05T12:15:31.454Z,3075
2017-05-05T12:16:41.736Z,2985
2017-05-05T12:17:52.023Z,2850
2017-05-05T12:19:02.309Z,2835
2017-05-05T12:20:12.277Z,2910
2017-05-05T12:21:21.953Z,3105
2017-05-05T12:22:31.621Z,3055
2017-05-05T12:23:41.902Z,3035
2017-05-05T12:24:51.877Z,2830
2017-05-05T12:26:02.167Z,2810
2017-05-05T12:27:12.458Z,2610
2017-05-05T12:28:22.742Z,2585
2017-05-05T12:29:33.026Z,2520
2017-05-05T12:30:43.308Z,2480
2017-05-05T12:31:53.591Z,2505
2017-05-05T12:33:03.251Z,2345
2017-05-05T12:34:13.536Z,2300
2017-05-05T12:35:23.189Z,2140
2017-05-05T12:36:33.172Z,2050
2017-05-05T12:37:43.459Z,1685
2017-05-05T12:38:53.430Z,1580
2017-05-05T12:40:03.720Z,1920
2017-05-05T12:41:13.684Z,2055
2017-05-05T12:42:23.967Z,2350
2017-05-05T12:43:33.620Z,2960
2017-05-05T12:44:43.598Z,2830
2017-05-05T12:45:53.574Z,2390
2017-05-05T12:47:03.859Z,2530
2017-05-05T12:48:14.143Z,2760
2017-05-05T12:49:24.452Z,2690
2017-05-05T12:50:34.420Z,2905
2017-05-05T12:51:44.702Z,3575
2017-05-05T12:52:54.992Z,3770
2017-05-05T12:54:05.276Z,3250
2017-05-05T12:55:15.556Z,3265
2017-05-05T12:56:25.841Z,3240
2017-05-05T12:57:36.127Z,3250
2017-05-05T12:58:45.783Z,3615
2017-05-05T12:59:55.750Z,3535
2017-05-05T13:01:06.033Z,3555
2017-05-05T13:02:16.006Z,3805
2017-05-05T13:03:26.293Z,3775
2017-05-05T13:04:36.582Z,3605
2017-05-05T13:05:46.870Z,3500
2017-05-05T13:06:56.839Z,2970
2017-05-05T13:08:07.128Z,3160
2017-05-05T13:09:16.785Z,3560
2017-05-05T13:10:27.074Z,3245
2017-05-05T13:11:37.379Z,3010
2017-05-05T13:12:47.670Z,2785
2017-05-05T13:13:57.329Z,3085
2017-05-05T13:15:07.616Z,3225
2017-05-05T13:16:17.901Z,3205
2017-05-05T13:17:28.192Z,3375
2017-05-05T13:18:38.480Z,3510
2017-05-05T13:19:48.761Z,3390
2017-05-05T13:20:58.737Z,3350
2017-05-05T13:22:08.709Z,3235
2017-05-05T13:23:18.999Z,3150
2017-05-05T13:24:29.294Z,3180
2017-05-05T13:25:39.585Z,2990
2017-05-05T13:26:49.873Z,2800
2017-05-05T13:28:00.159Z,2735
2017-05-05T13:29:10.128Z,2805
2017-05-05T13:30:20.413Z,2875
2017-05-05T13:31:30.696Z,2915
2017-05-05T13:32:41.002Z,2945
2017-05-05T13:33:51.302Z,3010
2017-05-05T13:35:01.594Z,3125
2017-05-05T13:36:11.875Z,3335
2017-05-05T13:37:22.161Z,3340
2017-05-05T13:38:32.141Z,3265
2017-05-05T13:39:42.422Z,3275
2017-05-05T13:40:52.403Z,3355
2017-05-05T13:42:02.698Z,3365
2017-05-05T13:43:13.013Z,3370
2017-05-05T13:44:23.301Z,3300
2017-05-05T13:45:33.594Z,3050
2017-05-05T13:46:43.879Z,3360
2017-05-05T13:47:54.172Z,3320
2017-05-05T13:49:04.152Z,3270
2017-05-05T13:50:14.133Z,3420
2017-05-05T13:51:24.419Z,2380
2017-05-05T13:52:34.395Z,1520
2017-05-05T13:53:44.689Z,1050
2017-05-05T13:54:54.983Z,875
2017-05-05T13:56:05.269Z,785
2017-05-05T13:57:14.927Z,790
2017-05-05T13:58:24.616Z,1025
2017-05-05T13:59:34.905Z,1055
2017-05-05T14:00:44.561Z,915
2017-05-05T14:01:54.873Z,1020
2017-05-05T14:03:04.841Z,955
2017-05-05T14:04:15.128Z,1080
2017-05-05T14:05:25.414Z,1305
2017-05-05T14:06:35.696Z,1435
2017-05-05T14:07:45.670Z,1515
2017-05-05T14:08:55.955Z,1615
2017-05-05T14:10:06.232Z,1615
2017-05-05T14:11:16.517Z,2020
2017-05-05T14:12:26.805Z,1810
2017-05-05T14:13:37.089Z,2040
2017-05-05T14:14:47.372Z,2290
2017-05-05T14:15:57.652Z,2735
2017-05-05T14:17:07.941Z,2820
2017-05-05T14:18:17.603Z,2755
2017-05-05T14:19:27.887Z,2570
2017-05-05T14:20:38.169Z,2485
2017-05-05T14:21:48.457Z,2630
2017-05-05T14:22:58.740Z,2455
2017-05-05T14:24:09.020Z,2450
2017-05-05T14:25:18.989Z,2420
2017-05-05T14:26:29.273Z,2320
2017-05-05T14:27:39.558Z,2285
2017-05-05T14:28:49.849Z,2130
2017-05-05T14:30:00.137Z,2045
2017-05-05T14:31:10.429Z,2065
2017-05-05T14:32:20.713Z,2110
2017-05-05T14:33:30.995Z,2440
2017-05-05T14:34:40.967Z,2550
2017-05-05T14:35:51.252Z,2285
2017-05-05T14:37:01.534Z,2090
2017-05-05T14:38:11.821Z,1920
2017-05-05T14:39:21.793Z,1260
2017-05-05T14:40:32.107Z,1295
2017-05-05T14:41:42.390Z,1400
2017-05-05T14:42:52.358Z,1870
2017-05-05T14:44:02.670Z,2660
2017-05-05T14:45:12.650Z,2610
2017-05-05T14:46:22.937Z,2975
2017-05-05T14:47:33.220Z,2940
2017-05-05T14:48:43.503Z,2855
2017-05-05T14:49:53.783Z,2600
2017-05-05T14:51:04.069Z,2840
2017-05-05T14:52:14.037Z,2840
2017-05-05T14:54:52.122Z,2565
2017-05-05T14:56:02.096Z,2660
2017-05-05T14:57:12.068Z,2680
2017-05-05T14:58:22.038Z,2405
2017-05-05T14:59:34.600Z,2420
2017-05-05T15:00:44.884Z,2630
2017-05-05T15:01:55.175Z,2360
2017-05-05T15:03:05.458Z,2250
2017-05-05T15:04:15.430Z,2000
2017-05-05T15:05:27.967Z,1965
2017-05-05T15:06:38.255Z,1365
2017-05-05T15:07:48.546Z,1560
2017-05-05T15:08:58.843Z,1460
2017-05-05T15:10:09.138Z,1460
2017-05-05T15:11:19.722Z,1275
2017-05-05T15:12:30.036Z,1110
2017-05-05T15:13:40.322Z,995
2017-05-05T15:14:50.605Z,870
2017-05-05T15:16:00.577Z,915
2017-05-05T15:17:13.159Z,995
2017-05-05T15:18:23.446Z,1130
2017-05-05T15:19:33.736Z,1200
2017-05-05T15:20:44.022Z,1095
2017-05-05T15:21:54.312Z,1005
2017-05-05T15:23:04.554Z,1025
2017-05-05T15:24:14.209Z,1000
2017-05-05T15:25:24.489Z,1015
2017-05-05T15:26:34.760Z,1025
2017-05-05T15:27:44.745Z,1040
2017-05-05T15:28:55.330Z,1050
2017-05-05T15:30:04.673Z,1105
2017-05-05T15:31:14.953Z,1110
2017-05-05T15:32:25.230Z,1145
2017-05-05T15:33:35.506Z,1195
2017-05-05T15:34:45.716Z,1265
2017-05-05T15:35:55.992Z,1550
2017-05-05T15:37:06.271Z,1955
2017-05-05T15:38:16.242Z,1970
2017-05-05T15:39:26.520Z,2055
2017-05-05T15:40:36.499Z,1550
2017-05-05T15:41:46.788Z,1160
2017-05-05T15:42:56.757Z,850
2017-05-05T15:44:06.735Z,820
2017-05-05T15:45:17.018Z,810
2017-05-05T15:46:26.982Z,780
2017-05-05T15:47:37.266Z,900
2017-05-05T15:48:47.551Z,1110
2017-05-05T15:49:57.833Z,1160
2017-05-05T15:51:08.108Z,1175
2017-05-05T15:52:18.074Z,1195
2017-05-05T15:53:28.350Z,970
2017-05-05T15:54:38.631Z,940
2017-05-05T15:55:48.912Z,1030
2017-05-05T15:56:59.198Z,1195
2017-05-05T15:58:09.161Z,1120
2017-05-05T15:59:19.129Z,1010
2017-05-05T16:00:29.405Z,855
2017-05-05T16:01:39.368Z,765
2017-05-05T16:02:49.644Z,750
2017-05-05T16:03:59.926Z,620
2017-05-05T16:05:09.583Z,570
2017-05-05T16:06:19.539Z,595
2017-05-05T16:07:29.845Z,570
2017-05-05T16:08:39.183Z,590
2017-05-05T16:09:49.456Z,645
2017-05-05T16:10:59.725Z,620
2017-05-05T16:12:10.006Z,535
2017-05-05T16:13:19.967Z,540